createdAt,value
2023-08-22T00:00:32.568Z,95.45
2023-08-22T00:03:19.796Z,95.41
2023-08-22T00:05:46.729Z,95.51
2023-08-22T00:08:13.572Z,95.60
2023-08-22T00:10:41.028Z,95.70
2023-08-22T00:13:07.871Z,95.68
2023-08-22T00:15:34.958Z,95.72
2023-08-22T00:18:02.192Z,95.92
2023-08-22T00:20:29.222Z,96.08
2023-08-22T00:22:56.150Z,96.43
2023-08-22T00:25:22.998Z,96.66
2023-08-22T00:27:49.840Z,97.09
2023-08-22T00:30:16.679Z,97.87
2023-08-22T00:32:43.677Z,98.16
2023-08-22T00:35:12.522Z,98.43
2023-08-22T00:37:39.661Z,98.36
2023-08-22T00:40:07.936Z,98.31
2023-08-22T00:42:34.783Z,97.86
2023-08-22T00:45:02.846Z,97.68
2023-08-22T00:47:30.236Z,97.56
2023-08-22T00:49:57.244Z,97.68
2023-08-22T00:52:24.087Z,97.51
2023-08-22T00:54:51.749Z,97.35
2023-08-22T00:57:18.791Z,97.35
2023-08-22T00:59:45.736Z,97.32
2023-08-22T01:02:15.367Z,97.43
2023-08-22T01:04:44.026Z,97.34
2023-08-22T01:07:27.456Z,97.54
2023-08-22T01:10:00.038Z,97.65
2023-08-22T01:12:33.020Z,98.11
2023-08-22T01:15:11.228Z,98.24
2023-08-22T01:17:39.594Z,98.56
2023-08-22T01:20:12.487Z,98.79
2023-08-22T01:22:42.515Z,98.66
2023-08-22T01:25:09.672Z,98.58
2023-08-22T01:27:59.333Z,98.68
2023-08-22T01:30:34.195Z,98.62
2023-08-22T01:33:07.642Z,98.51
2023-08-22T01:35:35.624Z,98.35
2023-08-22T01:38:03.529Z,98.60
2023-08-22T01:40:31.040Z,98.70
2023-08-22T01:43:00.341Z,98.76
2023-08-22T01:45:27.592Z,98.62
2023-08-22T01:47:54.627Z,98.90
2023-08-22T01:50:21.681Z,99.19
2023-08-22T01:52:48.933Z,99.40
2023-08-22T01:55:16.395Z,99.13
2023-08-22T01:57:45.791Z,99.06
2023-08-22T02:00:13.350Z,98.94
2023-08-22T02:02:40.270Z,99.07
2023-08-22T02:05:08.206Z,99.18
2023-08-22T02:07:36.363Z,99.50
2023-08-22T02:10:06.862Z,99.42
2023-08-22T02:12:33.799Z,99.35
2023-08-22T02:15:01.081Z,99.29
2023-08-22T02:17:28.210Z,99.15
2023-08-22T02:19:57.761Z,99.35
2023-08-22T02:22:24.652Z,99.32
2023-08-22T02:24:51.491Z,99.16
2023-08-22T02:27:18.435Z,99.00
2023-08-22T02:29:45.274Z,98.98
2023-08-22T02:32:12.115Z,98.93
2023-08-22T02:34:41.216Z,99.19
2023-08-22T02:37:08.255Z,99.15
2023-08-22T02:39:35.103Z,98.80
2023-08-22T02:42:02.755Z,98.87
2023-08-22T02:44:29.710Z,98.88
2023-08-22T02:46:56.645Z,98.91
2023-08-22T02:49:23.486Z,99.04
2023-08-22T02:51:50.322Z,99.12
2023-08-22T02:54:17.274Z,99.18
2023-08-22T02:56:44.212Z,99.39
2023-08-22T02:59:11.264Z,99.45
2023-08-22T03:01:38.097Z,99.55
2023-08-22T03:04:05.449Z,99.55
2023-08-22T03:06:32.292Z,99.83
2023-08-22T03:09:00.575Z,99.94
2023-08-22T03:11:28.737Z,99.84
2023-08-22T03:13:56.096Z,99.84
2023-08-22T03:16:23.672Z,100.00
2023-08-22T03:18:50.697Z,99.99
2023-08-22T03:21:17.640Z,100.00
2023-08-22T03:23:45.404Z,100.00
2023-08-22T03:26:14.765Z,99.98
2023-08-22T03:28:42.279Z,99.96
2023-08-22T03:31:09.527Z,99.89
2023-08-22T03:33:36.478Z,99.87
2023-08-22T03:36:06.692Z,99.65
2023-08-22T03:38:35.159Z,99.84
2023-08-22T03:41:03.536Z,99.92
2023-08-22T03:43:30.681Z,99.93
2023-08-22T03:45:58.001Z,99.94
2023-08-22T03:48:25.256Z,100.00
2023-08-22T03:50:53.053Z,100.00
2023-08-22T03:53:20.004Z,100.00
2023-08-22T03:55:47.042Z,100.00
2023-08-22T03:58:13.985Z,100.00
2023-08-22T04:00:41.048Z,100.00
2023-08-22T04:03:07.998Z,100.00
2023-08-22T04:05:35.125Z,100.00
2023-08-22T04:08:02.688Z,100.00
2023-08-22T04:10:29.621Z,100.00
2023-08-22T04:12:56.564Z,100.00
2023-08-22T04:15:23.558Z,100.00
2023-08-22T04:17:51.485Z,100.00
2023-08-22T04:20:18.828Z,100.00
2023-08-22T04:22:45.673Z,100.00
2023-08-22T04:25:14.163Z,100.00
2023-08-22T04:27:43.179Z,100.00
2023-08-22T04:30:12.278Z,100.00
2023-08-22T04:32:39.445Z,100.00
2023-08-22T04:35:08.172Z,100.00
2023-08-22T04:37:38.325Z,100.00
2023-08-22T04:40:06.166Z,100.00
2023-08-22T04:42:51.734Z,100.00
2023-08-22T04:45:19.083Z,100.00
2023-08-22T04:47:46.582Z,100.00
2023-08-22T04:50:14.101Z,100.00
2023-08-22T04:52:41.044Z,100.00
2023-08-22T04:55:08.605Z,100.00
2023-08-22T04:57:35.454Z,100.00
2023-08-22T05:00:04.642Z,100.00
2023-08-22T05:02:31.641Z,100.00
2023-08-22T05:04:58.841Z,100.00
2023-08-22T05:07:26.191Z,100.00
2023-08-22T05:09:53.439Z,100.00
2023-08-22T05:12:21.687Z,100.00
2023-08-22T05:14:48.633Z,100.00
2023-08-22T05:17:15.580Z,100.00
2023-08-22T05:19:43.062Z,100.00
2023-08-22T05:22:10.206Z,100.00
2023-08-22T05:24:39.410Z,100.00
2023-08-22T05:27:06.690Z,100.00
2023-08-22T05:29:34.558Z,100.00
2023-08-22T05:32:02.040Z,100.00
2023-08-22T05:34:29.225Z,100.00
2023-08-22T05:36:56.168Z,100.00
2023-08-22T05:39:23.630Z,100.00
2023-08-22T05:41:50.467Z,100.00
2023-08-22T05:44:18.234Z,100.00
2023-08-22T05:46:45.580Z,100.00
2023-08-22T05:49:13.137Z,100.00
2023-08-22T05:51:40.522Z,100.00
2023-08-22T05:54:07.437Z,100.00
2023-08-22T05:56:34.893Z,100.00
2023-08-22T05:59:01.841Z,100.00
2023-08-22T06:01:28.913Z,100.00
2023-08-22T06:03:56.044Z,100.00
2023-08-22T06:06:22.976Z,100.00
2023-08-22T06:08:50.324Z,99.98
2023-08-22T06:11:17.780Z,99.40
2023-08-22T06:13:44.597Z,99.27
2023-08-22T06:16:11.714Z,99.07
2023-08-22T06:18:38.515Z,98.76
2023-08-22T06:21:05.354Z,98.30
2023-08-22T06:23:32.281Z,98.42
2023-08-22T06:25:59.238Z,98.34
2023-08-22T06:28:26.078Z,97.85
2023-08-22T06:30:54.769Z,97.49
2023-08-22T06:33:21.810Z,97.25
2023-08-22T06:35:48.855Z,97.39
2023-08-22T06:38:15.703Z,97.34
2023-08-22T06:40:43.259Z,97.57
2023-08-22T06:43:10.099Z,97.23
2023-08-22T06:45:38.110Z,96.93
2023-08-22T06:48:05.914Z,96.66
2023-08-22T06:50:32.974Z,96.74
2023-08-22T06:53:00.746Z,96.45
2023-08-22T06:55:27.590Z,96.51
2023-08-22T06:57:54.421Z,95.83
2023-08-22T07:00:22.287Z,95.46
2023-08-22T07:02:49.400Z,95.17
2023-08-22T07:05:18.339Z,94.27
2023-08-22T07:07:45.457Z,93.33
2023-08-22T07:10:13.823Z,93.35
2023-08-22T07:12:42.475Z,93.32
2023-08-22T07:15:09.789Z,92.96
2023-08-22T07:17:36.705Z,92.69
2023-08-22T07:20:04.695Z,92.29
2023-08-22T07:22:33.071Z,92.37
2023-08-22T07:25:00.018Z,91.95
2023-08-22T07:27:26.962Z,91.66
2023-08-22T07:29:54.005Z,91.84
2023-08-22T07:32:21.568Z,91.48
2023-08-22T07:34:48.607Z,91.05
2023-08-22T07:37:16.576Z,91.09
2023-08-22T07:39:43.728Z,90.72
2023-08-22T07:42:10.565Z,89.99
2023-08-22T07:44:37.409Z,89.37
2023-08-22T07:47:04.456Z,89.08
2023-08-22T07:49:31.316Z,89.38
2023-08-22T07:51:59.166Z,88.91
2023-08-22T07:54:26.116Z,88.87
2023-08-22T07:57:01.710Z,88.61
2023-08-22T07:59:35.452Z,87.99
2023-08-22T08:02:02.353Z,87.99
2023-08-22T08:04:31.389Z,87.66
2023-08-22T08:06:58.232Z,87.36
2023-08-22T08:09:35.036Z,86.97
2023-08-22T08:12:04.454Z,86.50
2023-08-22T08:14:31.757Z,86.12
2023-08-22T08:16:58.704Z,85.82
2023-08-22T08:19:27.431Z,85.34
2023-08-22T08:21:54.856Z,85.16
2023-08-22T08:24:22.089Z,85.13
2023-08-22T08:26:49.158Z,84.74
2023-08-22T08:29:18.542Z,83.85
2023-08-22T08:31:45.588Z,83.82
2023-08-22T08:34:12.448Z,83.85
2023-08-22T08:36:39.266Z,83.81
2023-08-22T08:39:06.518Z,83.27
2023-08-22T08:41:34.397Z,82.86
2023-08-22T08:44:02.045Z,82.66
2023-08-22T08:46:30.813Z,82.46
2023-08-22T08:48:58.288Z,82.21
2023-08-22T08:51:25.331Z,81.31
2023-08-22T08:53:53.097Z,81.18
2023-08-22T08:56:20.621Z,80.75
2023-08-22T08:58:49.237Z,80.10
2023-08-22T09:01:16.608Z,79.18
2023-08-22T09:03:45.476Z,79.14
2023-08-22T09:06:12.320Z,78.80
2023-08-22T09:08:39.977Z,78.89
2023-08-22T09:11:07.332Z,78.45
2023-08-22T09:13:54.028Z,77.85
2023-08-22T09:16:27.297Z,76.92
2023-08-22T09:19:01.161Z,76.42
2023-08-22T09:21:28.908Z,75.54
2023-08-22T09:24:09.387Z,74.94
2023-08-22T09:26:37.436Z,75.31
2023-08-22T09:29:07.971Z,74.81
2023-08-22T09:31:36.192Z,73.68
2023-08-22T09:34:09.118Z,73.97
2023-08-22T09:36:44.811Z,73.62
2023-08-22T09:39:21.331Z,73.27
2023-08-22T09:41:53.793Z,72.49
2023-08-22T09:44:25.645Z,71.81
2023-08-22T09:46:54.246Z,71.92
2023-08-22T09:49:22.215Z,71.03
2023-08-22T09:51:51.827Z,70.95
2023-08-22T09:54:18.769Z,70.80
2023-08-22T09:56:46.532Z,70.78
2023-08-22T09:59:16.847Z,69.79
2023-08-22T10:01:44.070Z,70.04
2023-08-22T10:04:13.235Z,69.52
2023-08-22T10:09:13.427Z,67.79
2023-08-22T10:11:49.078Z,67.25
2023-08-22T10:14:46.231Z,66.54
2023-08-22T10:17:13.991Z,67.01
2023-08-22T10:19:44.227Z,66.37
2023-08-22T10:22:13.057Z,65.45
2023-08-22T10:24:43.762Z,65.44
2023-08-22T10:27:16.271Z,64.62
2023-08-22T10:29:48.060Z,64.05
2023-08-22T10:32:14.932Z,63.99
2023-08-22T10:34:41.844Z,63.67
2023-08-22T10:37:22.917Z,62.83
2023-08-22T10:39:50.087Z,61.95
2023-08-22T10:42:18.139Z,61.55
2023-08-22T10:44:52.362Z,60.74
2023-08-22T10:47:20.907Z,59.73
2023-08-22T10:50:15.910Z,59.18
2023-08-22T10:52:44.385Z,59.02
2023-08-22T10:55:14.750Z,58.60
2023-08-22T10:57:46.917Z,57.68
2023-08-22T11:00:20.203Z,57.23
2023-08-22T11:02:57.933Z,56.84
2023-08-22T11:05:27.443Z,56.73
2023-08-22T11:07:54.240Z,56.38
2023-08-22T11:10:25.221Z,55.40
2023-08-22T11:12:55.206Z,55.29
2023-08-22T11:15:22.553Z,54.40
2023-08-22T11:17:51.407Z,53.93
2023-08-22T11:20:23.789Z,53.34
2023-08-22T11:22:50.893Z,53.14
2023-08-22T11:25:25.881Z,52.97
2023-08-22T11:27:53.444Z,51.99
2023-08-22T11:30:20.912Z,51.96
2023-08-22T11:32:48.295Z,51.75
2023-08-22T11:35:16.628Z,51.80
2023-08-22T11:37:44.436Z,51.50
2023-08-22T11:40:16.629Z,51.56
2023-08-22T11:42:46.981Z,51.05
2023-08-22T11:45:17.769Z,50.54
2023-08-22T11:47:49.626Z,50.64
2023-08-22T11:50:24.318Z,50.77
2023-08-22T11:53:19.054Z,50.61
2023-08-22T11:55:49.846Z,50.15
2023-08-22T11:58:17.492Z,49.93
2023-08-22T12:00:44.962Z,49.78
2023-08-22T12:03:12.101Z,49.79
2023-08-22T12:05:41.901Z,49.78
2023-08-22T12:08:11.611Z,49.48
2023-08-22T12:10:42.449Z,49.64
2023-08-22T12:13:10.327Z,49.56
2023-08-22T12:15:37.908Z,49.44
2023-08-22T12:18:05.476Z,49.77
2023-08-22T12:20:33.098Z,50.00
2023-08-22T12:23:01.675Z,49.75
2023-08-22T12:25:28.512Z,49.37
2023-08-22T12:27:55.561Z,49.15
2023-08-22T12:30:22.618Z,49.04
2023-08-22T12:32:49.778Z,48.22
2023-08-22T12:35:16.801Z,47.38
2023-08-22T12:37:44.140Z,47.06
2023-08-22T12:40:11.650Z,46.40
2023-08-22T12:42:47.916Z,45.70
2023-08-22T12:45:14.711Z,45.62
2023-08-22T12:47:43.334Z,44.70
2023-08-22T12:50:11.264Z,44.19
2023-08-22T12:52:38.519Z,43.79
2023-08-22T12:55:09.151Z,43.23
2023-08-22T12:57:37.437Z,43.13
2023-08-22T13:00:05.195Z,42.91
2023-08-22T13:02:32.319Z,42.74
2023-08-22T13:04:59.788Z,42.17
2023-08-22T13:07:26.831Z,42.32
2023-08-22T13:09:53.773Z,42.53
2023-08-22T13:12:20.622Z,42.64
2023-08-22T13:14:47.457Z,42.64
2023-08-22T13:17:14.404Z,42.89
2023-08-22T13:19:41.544Z,43.33
2023-08-22T13:22:08.409Z,43.92
2023-08-22T13:24:35.352Z,44.31
2023-08-22T13:27:02.283Z,44.19
2023-08-22T13:29:29.127Z,44.25
2023-08-22T13:31:56.104Z,44.05
2023-08-22T13:34:23.218Z,43.93
2023-08-22T13:36:50.482Z,43.09
2023-08-22T13:39:18.389Z,42.48
2023-08-22T13:41:47.423Z,42.54
2023-08-22T13:44:14.425Z,42.13
2023-08-22T13:46:42.652Z,42.42
2023-08-22T13:49:09.486Z,42.02
2023-08-22T13:51:36.329Z,41.61
2023-08-22T13:54:04.212Z,41.76
2023-08-22T13:56:31.876Z,41.02
2023-08-22T13:58:59.210Z,40.25
2023-08-22T14:01:27.369Z,40.21
2023-08-22T14:03:54.421Z,40.24
2023-08-22T14:06:21.481Z,40.38
2023-08-22T14:08:48.933Z,41.17
2023-08-22T14:11:15.963Z,42.26
2023-08-22T14:13:43.547Z,43.50
2023-08-22T14:16:10.869Z,44.08
2023-08-22T14:18:38.677Z,44.77
2023-08-22T14:21:06.212Z,45.35
2023-08-22T14:23:33.045Z,46.56
2023-08-22T14:25:59.992Z,47.15
2023-08-22T14:28:27.044Z,47.59
2023-08-22T14:31:01.630Z,48.58
2023-08-22T14:33:28.785Z,50.03
2023-08-22T14:35:56.766Z,50.47
2023-08-22T14:38:24.235Z,50.89
2023-08-22T14:40:55.694Z,51.81
2023-08-22T14:43:23.445Z,52.24
2023-08-22T14:45:51.436Z,52.36
2023-08-22T14:48:18.708Z,52.66
2023-08-22T14:50:46.018Z,52.59
2023-08-22T14:53:14.303Z,52.95
2023-08-22T14:55:55.867Z,54.14
2023-08-22T14:58:23.019Z,54.52
2023-08-22T15:00:50.235Z,53.83
2023-08-22T15:03:17.162Z,54.07
2023-08-22T15:05:44.256Z,54.01
2023-08-22T15:08:11.134Z,53.61
2023-08-22T15:10:38.246Z,52.81
2023-08-22T15:13:05.204Z,51.63
2023-08-22T15:15:32.303Z,50.56
2023-08-22T15:18:01.672Z,49.75
2023-08-22T15:20:28.729Z,48.86
2023-08-22T15:22:55.527Z,48.55
2023-08-22T15:25:23.493Z,48.62
2023-08-22T15:27:50.349Z,48.86
2023-08-22T15:30:17.285Z,48.77
2023-08-22T15:32:44.529Z,48.91
2023-08-22T15:35:11.484Z,49.19
2023-08-22T15:37:38.313Z,48.40
2023-08-22T15:40:06.181Z,48.53
2023-08-22T15:42:33.845Z,48.92
2023-08-22T15:45:01.199Z,49.08
2023-08-22T15:47:29.743Z,49.25
2023-08-22T15:49:57.641Z,50.68
2023-08-22T15:52:35.326Z,51.84
2023-08-22T15:55:08.637Z,53.00
2023-08-22T15:57:35.474Z,54.36
2023-08-22T16:00:03.155Z,55.50
2023-08-22T16:02:33.261Z,56.16
2023-08-22T16:05:00.606Z,57.32
2023-08-22T16:07:27.753Z,58.07
2023-08-22T16:09:54.699Z,58.07
2023-08-22T16:12:21.540Z,58.37
2023-08-22T16:14:48.375Z,59.27
2023-08-22T16:17:15.216Z,59.18
2023-08-22T16:19:42.017Z,59.44
2023-08-22T16:22:08.798Z,60.29
2023-08-22T16:24:35.744Z,60.70
2023-08-22T16:27:02.590Z,61.22
2023-08-22T16:29:29.525Z,61.04
2023-08-22T16:31:57.293Z,61.91
2023-08-22T16:34:24.149Z,61.62
2023-08-22T16:36:50.979Z,60.39
2023-08-22T16:39:18.737Z,59.10
2023-08-22T16:41:46.495Z,58.97
2023-08-22T16:44:13.542Z,59.06
2023-08-22T16:46:40.737Z,59.16
2023-08-22T16:49:10.607Z,59.48
2023-08-22T16:51:37.758Z,59.18
2023-08-22T16:54:08.215Z,59.30
2023-08-22T16:56:37.786Z,59.33
2023-08-22T16:59:09.329Z,59.60
2023-08-22T17:01:37.136Z,59.98
2023-08-22T17:04:04.191Z,60.14
2023-08-22T17:06:31.099Z,60.04
2023-08-22T17:08:59.269Z,60.07
2023-08-22T17:11:26.100Z,59.75
2023-08-22T17:13:53.057Z,59.57
2023-08-22T17:16:19.910Z,59.57
2023-08-22T17:18:47.043Z,59.68
2023-08-22T17:21:15.721Z,60.00
2023-08-22T17:23:44.197Z,60.48
2023-08-22T17:26:12.677Z,61.05
2023-08-22T17:28:40.560Z,61.27
2023-08-22T17:31:08.501Z,61.58
2023-08-22T17:33:39.036Z,61.64
2023-08-22T17:36:08.585Z,61.97
2023-08-22T17:38:36.313Z,62.49
2023-08-22T17:41:05.032Z,62.63
2023-08-22T17:43:33.539Z,63.06
2023-08-22T17:46:00.483Z,63.37
2023-08-22T17:48:27.868Z,63.78
2023-08-22T17:50:55.744Z,64.08
2023-08-22T17:53:22.993Z,64.54
2023-08-22T17:55:53.863Z,64.61
2023-08-22T17:58:21.302Z,64.75
2023-08-22T18:00:49.551Z,65.02
2023-08-22T18:03:16.755Z,65.15
2023-08-22T18:05:57.479Z,65.53
2023-08-22T18:08:25.027Z,65.80
2023-08-22T18:10:52.898Z,66.09
2023-08-22T18:13:20.250Z,66.28
2023-08-22T18:18:32.046Z,66.60
2023-08-22T18:21:03.267Z,66.90
2023-08-22T18:23:31.262Z,66.86
2023-08-22T18:26:02.330Z,67.03
2023-08-22T18:28:32.086Z,67.40
2023-08-22T18:31:02.638Z,67.50
2023-08-22T18:33:29.602Z,67.75
2023-08-22T18:35:56.549Z,68.04
2023-08-22T18:38:23.904Z,68.30
2023-08-22T18:40:54.218Z,68.46
2023-08-22T18:43:21.777Z,68.55
2023-08-22T18:45:49.167Z,69.12
2023-08-22T18:48:16.531Z,69.77
2023-08-22T18:50:43.521Z,70.14
2023-08-22T18:53:10.566Z,70.63
2023-08-22T18:55:37.508Z,71.13
2023-08-22T18:58:04.468Z,71.44
2023-08-22T19:00:31.444Z,71.68
2023-08-22T19:02:58.674Z,71.64
2023-08-22T19:05:25.910Z,71.71
2023-08-22T19:07:53.010Z,72.01
2023-08-22T19:10:20.248Z,72.29
2023-08-22T19:12:47.116Z,72.40
2023-08-22T19:15:13.981Z,72.40
2023-08-22T19:17:40.850Z,72.48
2023-08-22T19:20:08.578Z,72.65
2023-08-22T19:22:35.552Z,72.84
2023-08-22T19:25:02.780Z,72.81
2023-08-22T19:27:29.648Z,72.81
2023-08-22T19:29:56.564Z,73.11
2023-08-22T19:32:36.697Z,73.05
2023-08-22T19:35:10.721Z,72.98
2023-08-22T19:37:37.568Z,72.91
2023-08-22T19:40:05.028Z,73.02
2023-08-22T19:42:31.958Z,73.18
2023-08-22T19:45:02.006Z,73.30
2023-08-22T19:47:29.256Z,73.28
2023-08-22T19:49:56.378Z,73.23
2023-08-22T19:52:25.484Z,73.27
2023-08-22T19:54:52.514Z,73.26
2023-08-22T19:57:19.465Z,73.49
2023-08-22T19:59:46.404Z,73.64
2023-08-22T20:02:13.473Z,73.79
2023-08-22T20:04:40.902Z,73.78
2023-08-22T20:07:07.947Z,73.92
2023-08-22T20:09:36.040Z,73.90
2023-08-22T20:12:03.474Z,73.90
2023-08-22T20:14:31.341Z,73.81
2023-08-22T20:16:58.740Z,73.72
2023-08-22T20:19:25.638Z,73.71
2023-08-22T20:21:52.588Z,73.69
2023-08-22T20:24:19.536Z,73.79
2023-08-22T20:26:46.673Z,73.96
2023-08-22T20:29:13.613Z,73.91
2023-08-22T20:31:40.600Z,73.89
2023-08-22T20:34:07.607Z,73.96
2023-08-22T20:36:34.450Z,73.90
2023-08-22T20:39:04.464Z,74.06
2023-08-22T20:41:32.525Z,74.12
2023-08-22T20:43:59.797Z,74.09
2023-08-22T20:46:27.150Z,74.08
2023-08-22T20:48:54.240Z,74.21
2023-08-22T20:51:21.126Z,74.14
2023-08-22T20:53:47.972Z,74.09
2023-08-22T20:56:14.809Z,74.25
2023-08-22T20:58:41.657Z,74.13
2023-08-22T21:01:08.539Z,74.30
2023-08-22T21:03:35.716Z,74.41
2023-08-22T21:06:02.890Z,74.45
2023-08-22T21:08:29.736Z,74.60
2023-08-22T21:10:56.777Z,74.61
2023-08-22T21:13:23.624Z,74.66
2023-08-22T21:15:50.590Z,74.76
2023-08-22T21:18:17.620Z,74.96
2023-08-22T21:20:44.449Z,75.03
2023-08-22T21:23:11.290Z,74.99
2023-08-22T21:25:38.559Z,75.32
2023-08-22T21:28:05.609Z,75.49
2023-08-22T21:30:32.540Z,75.76
2023-08-22T21:32:59.471Z,76.00
2023-08-22T21:35:26.517Z,76.05
2023-08-22T21:37:53.368Z,76.24
2023-08-22T21:40:20.311Z,76.49
2023-08-22T21:42:47.348Z,76.84
2023-08-22T21:45:14.808Z,76.94
2023-08-22T21:47:42.601Z,77.00
2023-08-22T21:50:10.334Z,77.02
2023-08-22T21:52:38.115Z,77.25
2023-08-22T21:55:06.094Z,77.42
2023-08-22T21:57:33.416Z,77.57
2023-08-22T22:00:00.458Z,77.47
2023-08-22T22:02:27.713Z,77.74
2023-08-22T22:04:54.967Z,77.79
2023-08-22T22:07:22.022Z,78.15
2023-08-22T22:09:49.237Z,78.29
2023-08-22T22:12:16.219Z,78.49
2023-08-22T22:14:43.163Z,78.50
2023-08-22T22:17:09.990Z,78.67
2023-08-22T22:19:36.844Z,78.74
2023-08-22T22:22:03.880Z,79.15
2023-08-22T22:24:31.844Z,79.37
2023-08-22T22:26:58.687Z,79.44
2023-08-22T22:29:25.543Z,79.80
2023-08-22T22:31:52.380Z,80.02
2023-08-22T22:34:20.579Z,80.17
2023-08-22T22:36:48.817Z,80.36
2023-08-22T22:39:15.658Z,80.61
2023-08-22T22:41:42.497Z,80.57
2023-08-22T22:44:09.546Z,80.68
2023-08-22T22:46:36.433Z,80.90
2023-08-22T22:49:03.545Z,80.97
2023-08-22T22:51:30.377Z,80.86
2023-08-22T22:53:57.321Z,80.83
2023-08-22T22:56:24.174Z,80.93
2023-08-22T22:58:51.110Z,81.10
2023-08-22T23:01:17.962Z,81.19
2023-08-22T23:03:44.860Z,81.17
2023-08-22T23:06:11.945Z,81.09
2023-08-22T23:08:38.789Z,81.01
2023-08-22T23:11:07.217Z,81.07
2023-08-22T23:13:42.697Z,81.05
2023-08-22T23:16:09.606Z,80.91
2023-08-22T23:18:36.587Z,80.87
2023-08-22T23:21:03.529Z,80.99
2023-08-22T23:23:30.372Z,80.94
2023-08-22T23:26:00.080Z,80.87
2023-08-22T23:28:26.926Z,80.74
2023-08-22T23:30:53.803Z,80.78
2023-08-22T23:33:20.643Z,80.83
2023-08-22T23:35:47.444Z,81.01
2023-08-22T23:38:14.488Z,81.00
2023-08-22T23:40:41.435Z,81.04
2023-08-22T23:43:08.684Z,81.07
2023-08-22T23:45:35.539Z,81.11
2023-08-22T23:48:02.477Z,81.23
2023-08-22T23:50:30.672Z,81.38
2023-08-22T23:52:59.219Z,81.55
2023-08-22T23:55:26.164Z,81.76
2023-08-22T23:57:57.717Z,81.83
